createdAt,value
2019-02-06T05:00:19.533Z,74.50
2019-02-06T05:02:42.041Z,74.50
2019-02-06T05:05:04.843Z,74.60
2019-02-06T05:07:27.337Z,74.80
2019-02-06T05:09:49.849Z,74.90
2019-02-06T05:12:12.356Z,74.80
2019-02-06T05:14:34.854Z,74.80
2019-02-06T06:01:11.438Z,75.00
2019-02-06T06:03:46.504Z,75.10
2019-02-06T06:06:21.611Z,75.20
2019-02-06T06:08:44.031Z,75.30
2019-02-06T06:11:06.541Z,75.20
2019-02-06T06:13:29.048Z,75.20
2019-02-06T07:00:16.951Z,74.60
2019-02-06T07:02:39.658Z,74.10
2019-02-06T07:05:02.086Z,73.80
2019-02-06T07:07:24.519Z,73.80
2019-02-06T07:09:47.010Z,74.00
2019-02-06T07:12:09.413Z,73.60
2019-02-06T07:14:31.932Z,73.30
2019-02-06T08:02:26.406Z,57.10
2019-02-06T08:04:48.935Z,51.40
2019-02-06T08:07:11.458Z,45.30
2019-02-06T08:09:33.962Z,43.60
2019-02-06T08:11:56.467Z,44.60
2019-02-06T08:14:18.878Z,46.00
2019-02-06T09:02:30.514Z,50.20
2019-02-06T09:04:55.821Z,47.60
2019-02-06T09:07:17.258Z,46.10
2019-02-06T09:09:39.811Z,44.50
2019-02-06T09:12:02.317Z,40.60
2019-02-06T09:14:24.810Z,34.10
2019-02-06T10:00:57.640Z,22.00
2019-02-06T10:03:20.353Z,21.80
2019-02-06T10:05:42.766Z,22.00
2019-02-06T10:08:05.497Z,21.40
2019-02-06T10:10:47.490Z,20.90
2019-02-06T10:13:22.906Z,21.50
2019-02-06T11:01:21.331Z,20.20
2019-02-06T11:03:43.869Z,20.00
2019-02-06T11:06:06.366Z,19.50
2019-02-06T11:08:28.796Z,19.20
2019-02-06T11:10:51.817Z,19.70
2019-02-06T11:13:14.214Z,19.60
2019-02-06T12:02:24.082Z,22.50
2019-02-06T12:04:46.507Z,22.50
2019-02-06T12:07:09.044Z,22.20
2019-02-06T12:09:31.857Z,21.60
2019-02-06T12:11:54.368Z,21.50
2019-02-06T12:14:16.988Z,21.40
2019-02-06T13:01:25.231Z,25.60
2019-02-06T13:04:00.347Z,25.70
2019-02-06T13:06:35.271Z,26.00
2019-02-06T13:09:11.255Z,25.80
2019-02-06T13:11:46.342Z,25.70
2019-02-06T13:14:21.340Z,25.50
2019-02-06T14:00:29.007Z,26.60
2019-02-06T14:02:51.519Z,26.90
2019-02-06T14:05:15.902Z,26.70
2019-02-06T14:07:38.774Z,27.00
2019-02-06T14:10:01.484Z,26.90
2019-02-06T14:12:24.329Z,27.20
2019-02-06T14:14:46.823Z,27.30
2019-02-06T15:01:19.046Z,38.20
2019-02-06T15:04:04.319Z,38.80
2019-02-06T15:06:59.904Z,39.60
2019-02-06T15:10:13.230Z,40.00
2019-02-06T15:12:48.642Z,40.50
2019-02-06T16:03:25.417Z,48.10
2019-02-06T16:06:23.486Z,48.20
2019-02-06T16:09:17.786Z,49.30
2019-02-06T16:12:36.986Z,49.70
2019-02-06T17:02:18.586Z,56.90
2019-02-06T17:05:30.978Z,57.10
2019-02-06T17:08:25.726Z,57.40
2019-02-06T17:11:00.567Z,57.50
2019-02-06T17:13:36.775Z,57.70
2019-02-06T18:17:35.578Z,61.10
2019-02-06T18:19:58.103Z,60.90
2019-02-06T18:22:22.547Z,60.90
2019-02-06T18:24:44.955Z,61.10
2019-02-06T18:27:08.879Z,60.90
2019-02-06T18:29:31.397Z,61.40
2019-02-06T19:01:26.547Z,62.10
2019-02-06T19:03:49.079Z,62.30
2019-02-06T19:06:11.761Z,63.60
2019-02-06T19:08:39.904Z,63.20
2019-02-06T19:11:01.442Z,63.50
2019-02-06T19:13:24.077Z,63.60
2019-02-06T20:00:17.266Z,65.70
2019-02-06T20:02:40.034Z,65.70
2019-02-06T20:05:02.890Z,65.70
2019-02-06T20:07:25.513Z,65.90
2019-02-06T20:10:00.493Z,66.00
2019-02-06T20:12:35.781Z,66.00
2019-02-06T21:00:16.028Z,67.00
2019-02-06T21:02:51.714Z,67.70
2019-02-06T21:05:14.370Z,67.60
2019-02-06T21:07:56.450Z,67.30
2019-02-06T21:10:31.195Z,67.30
2019-02-06T21:13:06.229Z,67.30
